Time;durP1;ratioP1;P1;durP2;ratioP2;P2;SDS_P1;SDS_P2;PMS_P1;PMS_P2;Temp;Humidity;BMP_temperature;BMP_pressure;BME280_temperature;BME280_humidity;BME280_pressure;Samples;Min_cycle;Max_cycle;Signal;HPM_P1;HPM_P2
2021/03/04 00:00:32;;;;;;;3.13;2.72;;;;;;;10.77;71.05;101153.13;6257635;23;20011;-72
2021/03/04 00:03:12;;;;;;;3.00;2.80;;;;;;;10.76;71.33;101156.09;6230588;23;19999;-73
2021/03/04 00:05:52;;;;;;;1.92;1.83;;;;;;;10.75;70.95;101149.81;6230555;23;20026;-75
2021/03/04 00:08:19;;;;;;;2.75;2.55;;;;;;;10.61;71.27;101135.63;6253279;22;20012;-74
2021/03/04 00:10:45;;;;;;;2.97;2.78;;;;;;;10.72;70.81;101144.84;6203987;23;20016;-76
2021/03/04 00:13:18;;;;;;;1.95;1.73;;;;;;;10.64;71.27;101135.16;6203285;23;20023;-72
2021/03/04 00:15:56;;;;;;;;;;;;;;;;;;;;;
2021/03/04 00:20:59;;;;;;;8.50;6.80;;;;;;;10.57;71.36;101131.78;6306838;22;20503;-74
2021/03/04 00:23:36;;;;;;;6.50;5.65;;;;;;;10.62;71.51;101145.50;6288354;22;20023;-75
2021/03/04 00:26:11;;;;;;;9.80;6.38;;;;;;;10.60;71.32;101142.22;6289273;22;20051;-76
2021/03/04 00:28:39;;;;;;;4.88;4.47;;;;;;;10.51;71.09;101127.25;6290430;22;20027;-75
2021/03/04 00:31:25;;;;;;;4.20;3.83;;;;;;;10.63;70.93;101140.84;6316989;22;20298;-76
2021/03/04 00:33:51;;;;;;;4.45;3.83;;;;;;;10.52;71.81;101134.41;6317236;22;20162;-74
2021/03/04 00:36:17;;;;;;;19.33;9.45;;;;;;;10.46;72.12;101125.28;6318433;22;20007;-73
2021/03/04 00:38:42;;;;;;;23.00;12.18;;;;;;;10.52;71.50;101139.88;6286712;22;19995;-73
2021/03/04 00:41:50;;;;;;;31.88;15.23;;;;;;;10.47;72.46;101140.63;6264061;22;20011;-73
2021/03/04 00:44:15;;;;;;;17.48;10.40;;;;;;;10.29;72.74;101125.25;6304745;22;20030;-72
2021/03/04 00:46:44;;;;;;;7.72;6.13;;;;;;;10.34;72.91;101131.91;6289337;22;20027;-73
2021/03/04 00:49:10;;;;;;;4.38;4.07;;;;;;;10.31;72.49;101123.09;6316422;22;20023;-72
2021/03/04 00:51:35;;;;;;;2.83;2.60;;;;;;;10.30;72.77;101115.97;6289277;22;20029;-73
2021/03/04 00:54:01;;;;;;;3.60;3.17;;;;;;;10.29;72.58;101114.31;6286229;22;20010;-71
2021/03/04 00:56:43;;;;;;;2.40;2.30;;;;;;;10.40;71.85;101114.53;6285150;22;20003;-74
2021/03/04 00:59:09;;;;;;;2.35;2.17;;;;;;;10.33;72.69;101100.16;6287921;22;20007;-72
2021/03/04 01:01:34;;;;;;;1.98;1.88;;;;;;;10.40;72.40;101103.59;6314429;22;20014;-72
2021/03/04 01:04:00;;;;;;;9.00;6.25;;;;;;;10.37;72.88;101098.63;6288599;22;20038;-73
2021/03/04 01:09:59;;;;;;;;;;;;;;;;;;;;;
2021/03/04 01:12:24;;;;;;;3.33;2.95;;;;;;;10.26;71.96;101087.47;6269719;22;20027;-72
2021/03/04 01:14:50;;;;;;;8.52;6.75;;;;;;;10.41;72.38;101110.69;6315845;22;20014;-73
2021/03/04 01:17:21;;;;;;;10.02;8.32;;;;;;;10.31;72.44;101103.97;6260478;22;20011;-73
2021/03/04 01:19:48;;;;;;;15.48;10.05;;;;;;;10.29;72.89;101108.84;6300373;22;20405;-74
2021/03/04 01:22:14;;;;;;;9.48;7.72;;;;;;;10.16;73.12;101098.22;6282735;22;20062;-73
2021/03/04 01:24:40;;;;;;;5.18;4.57;;;;;;;10.17;73.17;101096.34;6257371;22;20446;-73
2021/03/04 01:27:05;;;;;;;4.60;4.18;;;;;;;10.19;73.03;101099.63;6229911;22;20015;-74
2021/03/04 01:29:31;;;;;;;11.30;6.63;;;;;;;10.24;73.41;101111.50;6229634;22;20019;-71
2021/03/04 01:32:04;;;;;;;7.70;6.07;;;;;;;10.24;73.43;101111.50;6258739;22;20419;-74
2021/03/04 01:34:29;;;;;;;4.55;4.25;;;;;;;10.17;73.37;101094.41;6282489;22;20006;-73
2021/03/04 01:36:57;;;;;;;6.70;3.67;;;;;;;10.26;73.52;101109.31;6260711;22;20016;-71
2021/03/04 01:39:23;;;;;;;4.60;4.30;;;;;;;10.24;73.34;101105.19;6259509;22;20014;-70
2021/03/04 01:41:48;;;;;;;4.10;3.80;;;;;;;10.26;73.48;101105.78;6276888;22;20003;-71
2021/03/04 01:44:14;;;;;;;6.93;5.32;;;;;;;10.22;73.30;101105.44;6285880;22;20038;-72
2021/03/04 01:46:44;;;;;;;3.15;2.95;;;;;;;10.20;73.71;101098.56;6256607;22;20007;-73
2021/03/04 01:49:12;;;;;;;2.53;2.33;;;;;;;10.19;73.22;101097.75;6285148;22;20027;-74
2021/03/04 01:51:39;;;;;;;1.73;1.63;;;;;;;10.18;73.34;101087.03;6284124;22;20004;-75
2021/03/04 01:54:06;;;;;;;2.05;1.85;;;;;;;10.16;73.31;101092.75;6256811;22;20023;-73
2021/03/04 01:56:31;;;;;;;4.05;1.92;;;;;;;10.11;73.41;101085.28;6255073;22;20035;-75
2021/03/04 02:03:23;;;;;;;1.67;1.58;;;;;;;10.24;73.27;101100.56;6261566;22;20397;-74
2021/03/04 02:06:17;;;;;;;;;;;;;;;;;;;;;
2021/03/04 02:08:54;;;;;;;2.28;2.17;;;;;;;10.06;73.81;101071.56;6169996;23;20044;-74
2021/03/04 02:11:41;;;;;;;3.58;3.30;;;;;;;10.11;73.77;101079.00;6192914;23;20005;-76
2021/03/04 02:14:23;;;;;;;3.05;2.85;;;;;;;10.20;73.40;101091.19;6248791;22;20059;-76
2021/03/04 02:17:02;;;;;;;1.83;1.73;;;;;;;10.05;73.96;101060.88;6281815;22;20106;-77
2021/03/04 02:19:49;;;;;;;3.50;3.30;;;;;;;10.24;73.20;101089.63;6285675;22;20023;-75
2021/03/04 02:22:25;;;;;;;;;;;;;;;;;;;;;
2021/03/04 02:25:17;;;;;;;;;;;;;;;;;;;;;
2021/03/04 02:27:52;;;;;;;6.78;5.38;;;;;;;10.21;73.45;101079.19;6283977;22;20023;-75
2021/03/04 02:30:32;;;;;;;14.13;9.85;;;;;;;10.10;73.96;101064.53;6286342;22;19999;-74
2021/03/04 02:33:07;;;;;;;20.95;12.45;;;;;;;9.99;74.38;101051.75;6283845;22;20003;-75
2021/03/04 02:35:37;;;;;;;25.75;15.30;;;;;;;9.90;74.17;101050.50;6285090;22;20000;-76
2021/03/04 02:38:10;;;;;;;28.50;15.10;;;;;;;9.96;74.60;101061.28;6283410;22;20006;-74
2021/03/04 02:40:39;;;;;;;33.13;15.82;;;;;;;9.92;74.25;101073.75;6284878;22;20008;-72
2021/03/04 02:43:09;;;;;;;31.08;16.08;;;;;;;9.80;75.09;101067.53;6285735;22;20027;-74
2021/03/04 02:45:35;;;;;;;32.30;18.98;;;;;;;9.76;75.48;101071.84;6281244;22;20006;-74
2021/03/04 02:48:02;;;;;;;28.38;15.25;;;;;;;9.65;75.49;101065.38;6287306;22;19996;-73
2021/03/04 02:50:33;;;;;;;22.05;12.38;;;;;;;9.53;75.28;101056.38;6287089;22;20078;-75
2021/03/04 02:53:07;;;;;;;24.63;13.80;;;;;;;9.64;75.06;101074.63;6259152;22;20027;-73
2021/03/04 02:55:33;;;;;;;16.02;11.68;;;;;;;9.58;75.65;101072.88;6259419;22;20008;-73
2021/03/04 02:58:02;;;;;;;24.27;14.13;;;;;;;9.57;75.69;101074.75;6284537;22;20093;-74
2021/03/04 03:00:29;;;;;;;22.55;12.77;;;;;;;9.44;75.57;101064.94;6311441;22;20003;-74
2021/03/04 03:03:00;;;;;;;21.30;11.23;;;;;;;9.54;75.56;101074.44;6286319;22;20011;-74
2021/03/04 03:05:37;;;;;;;29.88;13.82;;;;;;;9.52;76.44;101077.41;6285113;22;20061;-74
2021/03/04 03:08:04;;;;;;;27.80;13.57;;;;;;;9.35;75.42;101054.66;6287391;22;19996;-74
2021/03/04 03:10:30;;;;;;;23.92;13.60;;;;;;;9.39;75.60;101062.13;6285692;22;20000;-73
2021/03/04 03:13:00;;;;;;;21.67;12.05;;;;;;;9.34;75.54;101064.75;6281292;22;20023;-73
2021/03/04 03:15:29;;;;;;;17.45;11.40;;;;;;;9.32;75.77;101055.16;6288218;22;19999;-72
2021/03/04 03:17:55;;;;;;;13.52;9.77;;;;;;;9.39;76.56;101073.03;6286946;22;20063;-73
2021/03/04 03:20:22;;;;;;;17.92;10.93;;;;;;;9.31;75.34;101048.03;6307874;22;20146;-72
2021/03/04 03:23:00;;;;;;;19.67;9.05;;;;;;;9.38;76.51;101063.19;6286233;22;20002;-74
2021/03/04 03:25:30;;;;;;;11.48;8.48;;;;;;;9.24;76.09;101040.81;6285644;22;20087;-73
2021/03/04 03:27:56;;;;;;;15.82;8.38;;;;;;;9.39;76.29;101061.31;6288279;22;19999;-73
2021/03/04 03:30:30;;;;;;;12.65;9.27;;;;;;;9.32;76.13;101055.16;6285827;22;20389;-73
2021/03/04 03:33:01;;;;;;;13.10;9.50;;;;;;;9.34;76.06;101059.28;6287557;22;20000;-75
2021/03/04 03:35:29;;;;;;;11.43;10.25;;;;;;;9.31;75.33;101058.94;6285708;22;20003;-73
2021/03/04 03:37:56;;;;;;;7.78;6.95;;;;;;;9.33;76.16;101063.09;6286485;22;20007;-76
2021/03/04 03:40:33;;;;;;;11.75;8.82;;;;;;;9.33;75.05;101057.66;6284932;22;20000;-75
2021/03/04 03:43:05;;;;;;;10.07;8.27;;;;;;;9.29;75.48;101055.63;6288521;22;20011;-74
2021/03/04 03:45:51;;;;;;;7.97;7.38;;;;;;;9.40;74.87;101065.69;6285350;22;20007;-73
2021/03/04 03:48:22;;;;;;;9.05;7.40;;;;;;;9.23;75.15;101041.88;6271658;22;20436;-73
2021/03/04 03:50:53;;;;;;;13.55;9.00;;;;;;;9.38;74.88;101059.63;6288328;22;20798;-73
2021/03/04 03:53:27;;;;;;;13.32;10.80;;;;;;;9.24;75.24;101043.56;6287803;22;20303;-73
2021/03/04 03:56:03;;;;;;;9.70;7.63;;;;;;;9.31;75.34;101050.75;6285835;22;20030;-73
2021/03/04 03:58:31;;;;;;;14.15;8.30;;;;;;;9.34;74.86;101050.28;6286414;22;19999;-74
2021/03/04 04:01:02;;;;;;;10.32;8.60;;;;;;;9.36;75.24;101050.84;6286705;22;19999;-73
2021/03/04 04:03:29;;;;;;;14.50;9.13;;;;;;;9.30;75.20;101046.38;6286133;22;20022;-74
2021/03/04 04:05:55;;;;;;;11.40;9.85;;;;;;;9.21;75.53;101038.56;6286655;22;20003;-74
2021/03/04 04:08:25;;;;;;;9.27;8.43;;;;;;;9.19;75.67;101035.25;6287610;22;20056;-75
2021/03/04 04:11:07;;;;;;;8.50;7.55;;;;;;;9.34;75.84;101053.81;6286447;22;20086;-74
2021/03/04 04:13:33;;;;;;;11.00;5.60;;;;;;;9.20;75.15;101034.19;6286329;22;20008;-73
2021/03/04 04:16:06;;;;;;;7.28;6.00;;;;;;;9.38;75.62;101049.53;6285870;22;20026;-75
2021/03/04 04:18:32;;;;;;;6.28;5.82;;;;;;;9.34;74.57;101048.38;6283144;22;19996;-74
2021/03/04 04:20:58;;;;;;;14.13;6.10;;;;;;;9.35;75.24;101046.47;6309305;22;20015;-74
2021/03/04 04:23:28;;;;;;;20.88;9.35;;;;;;;9.44;74.75;101064.13;6264089;22;20018;-74
2021/03/04 04:25:54;;;;;;;11.32;8.68;;;;;;;9.24;75.42;101035.38;6289252;22;20010;-73
2021/03/04 04:28:26;;;;;;;12.50;9.27;;;;;;;9.40;75.39;101062.94;6290882;22;20003;-74
2021/03/04 04:30:56;;;;;;;18.85;10.40;;;;;;;9.33;74.72;101045.88;6319437;22;20029;-74
2021/03/04 04:33:25;;;;;;;15.48;9.95;;;;;;;9.22;75.20;101034.75;6318372;22;19999;-74
2021/03/04 04:35:52;;;;;;;14.52;9.68;;;;;;;9.23;75.40;101047.34;6318386;22;20058;-73
2021/03/04 04:38:21;;;;;;;11.15;8.93;;;;;;;9.28;74.90;101053.97;6289272;22;20067;-73
2021/03/04 04:40:47;;;;;;;18.95;12.02;;;;;;;9.17;75.09;101040.13;6288920;22;20105;-73
2021/03/04 04:43:13;;;;;;;15.80;12.00;;;;;;;9.26;75.70;101068.69;6291787;22;20011;-73
2021/03/04 04:45:38;;;;;;;20.17;12.45;;;;;;;9.19;75.65;101051.63;6319362;22;20007;-72
2021/03/04 04:48:04;;;;;;;22.88;13.38;;;;;;;9.20;75.32;101055.16;6286544;22;20009;-72
2021/03/04 04:50:29;;;;;;;24.83;12.88;;;;;;;9.16;75.03;101063.03;6266686;22;20037;-73
2021/03/04 04:52:55;;;;;;;30.02;14.20;;;;;;;9.18;74.98;101071.78;6286388;22;20011;-73
2021/03/04 04:55:21;;;;;;;26.52;12.60;;;;;;;9.16;74.72;101071.22;6267312;22;20007;-73
2021/03/04 04:57:47;;;;;;;27.23;14.38;;;;;;;9.10;74.79;101069.44;6292291;22;20011;-73
2021/03/04 05:00:16;;;;;;;33.22;15.52;;;;;;;9.16;75.51;101079.38;6290621;22;20042;-73
2021/03/04 05:02:42;;;;;;;33.55;16.90;;;;;;;9.00;75.01;101063.78;6291855;22;20030;-72
2021/03/04 05:05:08;;;;;;;35.50;16.55;;;;;;;8.98;74.34;101074.94;6281950;22;20003;-73
2021/03/04 05:07:45;;;;;;;26.40;13.52;;;;;;;8.90;74.42;101070.66;6291916;22;20003;-73
2021/03/04 05:10:11;;;;;;;24.30;13.93;;;;;;;8.78;74.71;101050.75;6316168;22;20003;-73
2021/03/04 05:12:37;;;;;;;33.08;15.82;;;;;;;8.80;74.39;101064.97;6313952;22;20089;-74
2021/03/04 05:15:21;;;;;;;;;;;;;;;;;;;;;
2021/03/04 05:17:56;;;;;;;27.48;12.80;;;;;;;8.83;74.93;101075.38;6198865;22;20005;-73
2021/03/04 05:20:25;;;;;;;16.65;11.35;;;;;;;8.68;75.52;101055.97;6288382;22;20051;-73
2021/03/04 05:22:51;;;;;;;22.00;11.82;;;;;;;8.70;75.29;101067.47;6319093;22;20074;-74
2021/03/04 05:25:16;;;;;;;15.98;10.35;;;;;;;8.73;75.67;101069.72;6320330;22;19999;-73
2021/03/04 05:27:42;;;;;;;25.27;12.77;;;;;;;8.67;75.10;101059.75;6323550;22;20005;-74
2021/03/04 05:30:08;;;;;;;23.15;13.00;;;;;;;8.68;75.45;101072.34;6325206;22;20025;-74
2021/03/04 05:32:34;;;;;;;25.00;12.70;;;;;;;8.60;75.83;101072.69;6327385;22;20002;-74
2021/03/04 05:35:23;;;;;;;33.83;16.90;;;;;;;8.61;75.23;101080.63;6301393;22;20019;-74
2021/03/04 05:37:58;;;;;;;24.05;13.57;;;;;;;8.37;75.36;101039.69;6326446;22;19999;-74
2021/03/04 05:40:33;;;;;;;21.23;12.40;;;;;;;8.44;74.52;101066.88;6321451;22;20003;-74
2021/03/04 05:42:59;;;;;;;30.50;15.93;;;;;;;8.28;74.11;101048.44;6287504;22;20254;-73
2021/03/04 05:45:28;;;;;;;29.40;13.80;;;;;;;8.25;74.29;101059.81;6257824;22;20007;-73
2021/03/04 05:47:55;;;;;;;32.65;15.13;;;;;;;8.14;73.96;101062.28;6290083;22;20063;-73
2021/03/04 05:50:22;;;;;;;33.75;15.40;;;;;;;8.07;73.61;101067.03;6287057;22;20014;-74
2021/03/04 05:53:02;;;;;;;27.85;14.50;;;;;;;8.07;74.79;101075.19;6258847;22;20018;-73
2021/03/04 05:55:27;;;;;;;27.92;14.30;;;;;;;8.11;74.44;101097.38;6315572;22;20007;-74
2021/03/04 05:58:00;;;;;;;28.27;13.65;;;;;;;8.04;74.77;101089.28;6315356;22;20005;-74
2021/03/04 06:00:26;;;;;;;26.60;11.30;;;;;;;8.04;74.24;101097.44;6283688;22;20007;-74
2021/03/04 06:02:53;;;;;;;34.70;13.93;;;;;;;7.91;74.47;101084.03;6291223;22;20023;-74
2021/03/04 06:05:18;;;;;;;28.52;12.77;;;;;;;7.85;74.48;101083.88;6317080;22;20007;-73
2021/03/04 06:07:48;;;;;;;27.90;11.93;;;;;;;7.81;74.60;101090.03;6287769;22;20068;-73
2021/03/04 06:10:20;;;;;;;22.13;10.55;;;;;;;7.81;75.01;101088.16;6291978;22;20064;-74
2021/03/04 06:12:51;;;;;;;13.45;7.65;;;;;;;7.67;75.17;101051.28;6314916;22;19999;-74
2021/03/04 06:15:51;;;;;;;15.60;7.38;;;;;;;7.75;75.06;101075.44;6291758;22;20081;-74
2021/03/04 06:18:36;;;;;;;6.53;5.35;;;;;;;7.78;74.96;101075.00;6319972;22;20124;-73
2021/03/04 06:21:21;;;;;;;10.52;6.28;;;;;;;7.73;74.09;101054.97;6285651;22;20023;-74
2021/03/04 06:23:56;;;;;;;11.38;7.22;;;;;;;7.93;74.37;101087.34;6285091;22;20008;-72
2021/03/04 06:26:38;;;;;;;13.05;7.85;;;;;;;7.84;74.42;101065.91;6282360;22;20000;-73
2021/03/04 06:29:28;;;;;;;8.63;7.03;;;;;;;7.87;74.77;101072.78;6288917;22;19999;-73
2021/03/04 06:32:02;;;;;;;11.68;7.40;;;;;;;7.95;73.58;101085.25;6288709;22;20007;-74
2021/03/04 06:34:30;;;;;;;11.15;7.90;;;;;;;7.78;73.78;101058.69;6287286;22;20018;-74
2021/03/04 06:37:03;;;;;;;17.00;9.48;;;;;;;7.71;74.20;101074.28;6261082;22;20774;-73
2021/03/04 06:39:48;;;;;;;12.80;8.93;;;;;;;7.68;73.99;101077.44;6282503;22;20007;-72
2021/03/04 06:42:17;;;;;;;16.40;9.15;;;;;;;7.61;72.79;101084.88;6262783;22;20102;-73
2021/03/04 06:44:55;;;;;;;11.88;7.25;;;;;;;7.42;73.37;101076.75;6284786;22;19999;-72
2021/03/04 06:47:25;;;;;;;13.27;7.03;;;;;;;7.34;73.78;101077.03;6287867;22;20018;-72
2021/03/04 06:49:55;;;;;;;14.32;6.80;;;;;;;7.24;73.78;101074.88;6284700;22;20003;-72
2021/03/04 06:52:33;;;;;;;6.50;5.90;;;;;;;7.40;73.86;101100.63;6284386;22;20079;-74
2021/03/04 06:55:17;;;;;;;12.65;5.95;;;;;;;7.38;73.54;101094.59;6284314;22;20018;-72
2021/03/04 06:58:00;;;;;;;6.03;5.10;;;;;;;7.43;73.69;101105.63;6282371;22;20006;-74
2021/03/04 07:00:26;;;;;;;6.47;4.28;;;;;;;7.41;73.50;101107.72;6310624;22;20007;-73
2021/03/04 07:02:58;;;;;;;7.18;5.15;;;;;;;7.46;73.23;101115.19;6285143;22;20015;-73
2021/03/04 07:05:25;;;;;;;4.95;3.97;;;;;;;7.46;73.62;101116.06;6285663;22;19999;-71
2021/03/04 07:07:53;;;;;;;3.45;3.15;;;;;;;7.38;73.73;101107.38;6286805;22;19999;-73
2021/03/04 07:10:34;;;;;;;6.85;5.57;;;;;;;7.37;72.92;101106.50;6285367;22;20011;-72
2021/03/04 07:13:00;;;;;;;5.30;4.80;;;;;;;7.33;73.32;101108.88;6260829;22;20003;-74
2021/03/04 07:15:29;;;;;;;5.80;5.43;;;;;;;7.38;73.15;101135.41;6289363;22;20003;-75
2021/03/04 07:17:56;;;;;;;7.45;5.00;;;;;;;7.37;73.37;101135.63;6280232;22;20069;-74
2021/03/04 07:20:24;;;;;;;4.35;3.95;;;;;;;7.31;72.67;101130.03;6287579;22;20418;-74
2021/03/04 07:22:49;;;;;;;8.75;4.75;;;;;;;7.33;73.20;101132.53;6284980;22;20000;-75
2021/03/04 07:25:20;;;;;;;4.22;3.90;;;;;;;7.37;73.22;101139.16;6282471;22;20010;-73
2021/03/04 07:27:46;;;;;;;4.85;4.50;;;;;;;7.33;73.18;101137.97;6285591;22;20018;-75
2021/03/04 07:30:15;;;;;;;3.47;3.35;;;;;;;7.25;73.08;101130.13;6255134;22;20008;-74
2021/03/04 07:32:43;;;;;;;3.95;3.47;;;;;;;7.23;72.67;101124.91;6284093;22;20000;-70
2021/03/04 07:35:32;;;;;;;;;;;;;;;;;;;;;
2021/03/04 07:38:00;;;;;;;4.90;4.50;;;;;;;7.34;73.00;101155.94;6281170;22;20019;-73
2021/03/04 07:40:25;;;;;;;5.60;5.10;;;;;;;7.31;72.94;101159.94;6285783;22;20003;-73
2021/03/04 07:43:03;;;;;;;4.65;4.35;;;;;;;7.21;72.53;101156.09;6284268;22;20006;-71
2021/03/04 07:45:31;;;;;;;8.55;4.38;;;;;;;7.24;72.51;101166.53;6279769;22;20012;-72
2021/03/04 07:48:09;;;;;;;4.95;4.53;;;;;;;7.19;72.10;101174.56;6286194;22;19996;-71
2021/03/04 07:50:37;;;;;;;4.35;3.95;;;;;;;7.16;72.74;101176.66;6285725;22;20011;-72
2021/03/04 07:53:04;;;;;;;8.10;5.20;;;;;;;7.05;73.25;101174.66;6256434;22;20425;-71
2021/03/04 07:55:44;;;;;;;4.15;3.95;;;;;;;7.08;72.58;101181.53;6282966;22;20038;-74
2021/03/04 07:58:38;;;;;;;5.82;4.82;;;;;;;7.10;72.65;101182.16;6282243;22;19996;-73
2021/03/04 08:01:33;;;;;;;3.85;3.58;;;;;;;7.08;73.06;101181.53;6283047;22;20801;-72
2021/03/04 08:04:19;;;;;;;4.05;3.75;;;;;;;7.07;73.16;101177.19;6286594;22;20027;-71
2021/03/04 08:06:45;;;;;;;4.05;3.85;;;;;;;7.04;72.52;101183.91;6260183;22;20049;-72
2021/03/04 08:09:11;;;;;;;4.65;4.30;;;;;;;7.01;72.51;101188.94;6284000;22;20015;-73
2021/03/04 08:11:44;;;;;;;4.40;3.78;;;;;;;7.01;72.91;101189.78;6279922;22;20007;-73
2021/03/04 08:14:15;;;;;;;2.53;2.35;;;;;;;7.05;72.43;101190.16;6281975;22;20018;-74
2021/03/04 08:16:45;;;;;;;3.03;2.60;;;;;;;6.90;72.91;101163.31;6283090;22;20443;-72
2021/03/04 08:19:13;;;;;;;3.53;3.22;;;;;;;7.06;72.69;101189.94;6283310;22;20026;-73
2021/03/04 08:21:42;;;;;;;4.78;3.38;;;;;;;6.98;72.88;101169.31;6234831;22;20422;-72
2021/03/04 08:24:13;;;;;;;4.43;4.13;;;;;;;7.08;72.61;101193.28;6286734;22;20353;-73
2021/03/04 08:26:39;;;;;;;4.30;4.00;;;;;;;7.06;72.97;101189.94;6259008;22;20085;-73
2021/03/04 08:29:18;;;;;;;4.68;4.18;;;;;;;7.03;72.84;101176.78;6287331;22;20003;-74
2021/03/04 08:31:47;;;;;;;5.72;4.57;;;;;;;6.94;73.07;101178.13;6259183;22;20015;-72
2021/03/04 08:34:13;;;;;;;7.45;5.00;;;;;;;7.03;72.99;101195.81;6258977;22;20003;-72
2021/03/04 08:36:43;;;;;;;4.78;4.47;;;;;;;6.91;72.46;101184.03;6283815;22;20011;-73
2021/03/04 08:39:09;;;;;;;5.15;4.75;;;;;;;7.00;73.22;101201.72;6257688;22;20007;-72
2021/03/04 08:41:35;;;;;;;4.53;4.22;;;;;;;6.93;72.39;101198.22;6229673;22;20012;-73
2021/03/04 08:44:15;;;;;;;4.75;4.45;;;;;;;6.98;72.42;101207.38;6283143;22;20025;-73
2021/03/04 08:46:46;;;;;;;3.58;3.30;;;;;;;6.98;73.08;101207.38;6283618;22;20007;-71
2021/03/04 08:49:22;;;;;;;8.10;4.32;;;;;;;6.94;71.96;101211.59;6284355;22;20003;-71
2021/03/04 08:51:49;;;;;;;4.15;3.80;;;;;;;6.95;72.14;101209.69;6259097;22;20000;-72
2021/03/04 08:54:25;;;;;;;4.30;4.00;;;;;;;6.99;72.13;101217.19;6277648;22;20022;-71
2021/03/04 08:56:55;;;;;;;3.60;3.40;;;;;;;6.90;72.29;101209.53;6283468;22;20006;-72
2021/03/04 08:59:25;;;;;;;5.40;3.10;;;;;;;6.93;71.94;101217.25;6247782;22;20000;-71
2021/03/04 09:01:54;;;;;;;2.78;2.58;;;;;;;6.97;72.42;101226.63;6283667;22;20021;-72
2021/03/04 09:04:25;;;;;;;3.17;2.97;;;;;;;6.92;72.25;101204.69;6253932;22;20011;-73
2021/03/04 09:06:51;;;;;;;2.90;2.78;;;;;;;6.96;71.62;101214.91;6258134;22;19992;-72
2021/03/04 09:09:36;;;;;;;2.63;2.42;;;;;;;7.07;71.15;101237.84;6256914;22;20059;-73
2021/03/04 09:12:02;;;;;;;2.38;2.20;;;;;;;7.09;71.55;101235.72;6257342;22;20002;-74
2021/03/04 09:14:32;;;;;;;3.17;2.33;;;;;;;7.03;71.38;101225.72;6282191;22;20007;-74
2021/03/04 09:17:11;;;;;;;2.75;2.65;;;;;;;7.07;71.58;101235.13;6256070;22;20004;-73
2021/03/04 09:19:41;;;;;;;2.38;1.95;;;;;;;7.01;71.23;101227.84;6283114;22;20046;-73
2021/03/04 09:22:13;;;;;;;3.13;2.83;;;;;;;7.08;70.94;101244.94;6284335;22;20015;-74
2021/03/04 09:24:39;;;;;;;2.28;2.17;;;;;;;6.94;71.52;101227.09;6284485;22;20071;-73
2021/03/04 09:27:07;;;;;;;3.63;3.42;;;;;;;7.01;71.00;101238.75;6261825;22;20004;-71
2021/03/04 09:29:37;;;;;;;3.63;3.42;;;;;;;7.07;71.67;101242.47;6288018;22;20000;-73
2021/03/04 09:32:06;;;;;;;4.65;3.78;;;;;;;7.01;71.76;101240.59;6287821;22;20074;-74
2021/03/04 09:34:35;;;;;;;4.10;3.75;;;;;;;7.05;71.51;101245.38;6266139;22;20003;-73
2021/03/04 09:37:21;;;;;;;3.78;3.45;;;;;;;7.04;71.17;101241.00;6270705;22;20007;-73
2021/03/04 09:39:48;;;;;;;4.72;4.43;;;;;;;7.01;71.35;101236.00;6253161;23;20004;-74
2021/03/04 09:42:20;;;;;;;4.68;4.28;;;;;;;7.08;70.70;101254.97;6257306;22;20573;-70
2021/03/04 09:44:57;;;;;;;4.68;4.00;;;;;;;7.02;71.54;101237.66;6279229;22;20030;-72
2021/03/04 09:47:25;;;;;;;4.20;3.92;;;;;;;7.15;70.82;101251.16;6273036;22;19999;-72
2021/03/04 09:49:53;;;;;;;5.20;4.75;;;;;;;7.15;71.51;101243.00;6287485;22;20037;-72
2021/03/04 09:52:31;;;;;;;3.92;3.72;;;;;;;7.22;71.18;101244.81;6286617;22;20420;-72
2021/03/04 09:55:08;;;;;;;4.30;3.90;;;;;;;7.27;70.81;101237.66;6285164;22;19996;-72
2021/03/04 09:57:40;;;;;;;5.30;4.90;;;;;;;7.41;70.56;101254.66;6284519;22;20019;-72
2021/03/04 10:00:17;;;;;;;4.22;3.83;;;;;;;7.37;70.35;101239.84;6283196;22;20010;-72
2021/03/04 10:02:51;;;;;;;6.35;4.85;;;;;;;7.51;70.32;101260.44;6288133;22;20011;-74
2021/03/04 10:05:19;;;;;;;6.97;5.20;;;;;;;7.47;70.44;101248.31;6287745;22;20004;-74
2021/03/04 10:07:46;;;;;;;7.47;4.53;;;;;;;7.50;69.83;101242.47;6287017;22;19996;-74
2021/03/04 10:10:20;;;;;;;6.53;5.93;;;;;;;7.70;69.39;101263.19;6232615;22;20012;-74
2021/03/04 10:12:57;;;;;;;6.35;5.75;;;;;;;7.74;69.50;101256.22;6259602;22;20012;-73
2021/03/04 10:15:42;;;;;;;5.40;4.90;;;;;;;7.89;69.79;101269.44;6287101;22;20003;-75
2021/03/04 10:18:11;;;;;;;5.78;5.25;;;;;;;7.97;69.07;101273.75;6284391;22;20154;-77
2021/03/04 10:20:54;;;;;;;8.75;5.50;;;;;;;8.00;69.53;101279.59;6288661;22;20015;-78
2021/03/04 10:23:23;;;;;;;7.18;6.30;;;;;;;8.00;68.20;101278.75;6235909;22;20085;-74
2021/03/04 10:25:49;;;;;;;8.80;6.55;;;;;;;7.97;68.25;101276.47;6261042;22;20007;-79
2021/03/04 10:28:18;;;;;;;7.07;6.03;;;;;;;7.89;69.02;101265.91;6261719;22;20011;-75
2021/03/04 10:30:51;;;;;;;12.05;7.30;;;;;;;7.94;68.41;101268.75;6262590;22;20418;-79
2021/03/04 10:33:19;;;;;;;9.90;6.75;;;;;;;7.84;68.79;101248.34;6261785;22;20086;-75
2021/03/04 10:35:45;;;;;;;13.52;7.05;;;;;;;8.03;68.43;101278.28;6285904;22;20003;-73
2021/03/04 10:38:10;;;;;;;16.88;9.73;;;;;;;8.11;68.30;101288.88;6284896;22;20000;-73
2021/03/04 10:40:36;;;;;;;20.42;11.40;;;;;;;7.98;68.31;101270.81;6260856;22;20008;-75
2021/03/04 10:43:10;;;;;;;23.17;10.35;;;;;;;8.06;67.27;101286.03;6285761;22;20003;-73
2021/03/04 10:45:39;;;;;;;20.27;11.40;;;;;;;8.03;67.48;101290.03;6289947;22;20054;-75
2021/03/04 10:48:05;;;;;;;17.13;10.27;;;;;;;8.03;67.17;101283.72;6287303;22;20024;-74
2021/03/04 10:50:39;;;;;;;20.02;10.18;;;;;;;8.02;68.42;101280.19;6264133;22;20012;-74
2021/03/04 10:53:07;;;;;;;17.08;8.60;;;;;;;7.90;68.32;101256.66;6290427;22;20019;-74
2021/03/04 10:55:35;;;;;;;18.67;9.75;;;;;;;8.21;67.74;101291.06;6290180;22;20027;-74
2021/03/04 10:58:04;;;;;;;20.30;10.93;;;;;;;8.26;67.75;101276.75;6261201;22;19996;-75
2021/03/04 11:00:42;;;;;;;;;;;;;;;;;;;;;
2021/03/04 11:03:10;;;;;;;29.15;12.40;;;;;;;8.51;67.36;101291.13;6262618;22;20027;-74
2021/03/04 11:05:36;;;;;;;28.20;11.88;;;;;;;8.54;66.74;101296.13;6287597;22;20000;-74
2021/03/04 11:08:01;;;;;;;22.90;10.98;;;;;;;8.53;67.22;101297.16;6259622;22;20074;-73
2021/03/04 11:10:27;;;;;;;19.60;10.27;;;;;;;8.47;67.07;101284.47;6263869;22;20069;-75
2021/03/04 11:12:53;;;;;;;23.27;11.38;;;;;;;8.48;67.15;101294.28;6263308;22;20000;-77
2021/03/04 11:15:26;;;;;;;27.67;11.93;;;;;;;8.53;67.19;101293.63;6263786;22;20478;-73
2021/03/04 11:18:01;;;;;;;21.35;11.35;;;;;;;8.55;67.43;101286.03;6285961;22;20004;-74
2021/03/04 11:20:27;;;;;;;24.77;11.55;;;;;;;8.67;66.94;101294.25;6290083;22;20071;-75
2021/03/04 11:22:55;;;;;;;26.13;12.52;;;;;;;8.79;66.02;101276.03;6282999;22;20414;-75
2021/03/04 11:25:20;;;;;;;21.67;10.85;;;;;;;8.95;66.33;101290.91;6262227;22;20007;-77
2021/03/04 11:27:48;;;;;;;38.95;13.93;;;;;;;8.94;65.42;101282.97;6291369;22;20301;-76
2021/03/04 11:30:15;;;;;;;34.10;14.23;;;;;;;9.00;65.66;101292.94;6264150;22;20011;-76
2021/03/04 11:32:47;;;;;;;43.03;15.23;;;;;;;8.91;65.35;101290.53;6266297;22;20007;-77
2021/03/04 11:35:13;;;;;;;40.42;14.60;;;;;;;8.91;64.87;101300.63;6293328;22;20055;-79
2021/03/04 11:37:38;;;;;;;33.10;13.90;;;;;;;8.97;65.06;101296.13;6240005;22;20030;-75
2021/03/04 11:40:04;;;;;;;40.13;14.75;;;;;;;8.95;65.01;101279.16;6261230;22;20038;-76
2021/03/04 11:42:32;;;;;;;47.72;16.80;;;;;;;9.04;63.86;101294.13;6290169;22;20004;-74
2021/03/04 11:45:00;;;;;;;37.40;14.57;;;;;;;8.96;64.26;101280.81;6264828;22;20003;-75
2021/03/04 11:47:26;;;;;;;49.90;17.13;;;;;;;8.92;64.64;101280.44;6264720;22;20023;-74
2021/03/04 11:49:57;;;;;;;32.47;12.45;;;;;;;8.97;64.68;101279.75;6238952;22;20003;-77
2021/03/04 11:52:29;;;;;;;36.22;13.80;;;;;;;9.08;65.27;101285.22;6264700;22;20004;-76
2021/03/04 11:54:54;;;;;;;30.98;11.88;;;;;;;9.29;65.61;101285.72;6289342;22;20020;-75
2021/03/04 11:57:20;;;;;;;34.03;12.50;;;;;;;9.58;64.87;101294.06;6291171;22;20012;-74
2021/03/04 12:00:16;;;;;;;32.80;14.32;;;;;;;9.71;63.30;101284.75;6289827;22;19999;-74
2021/03/04 12:02:39;;;;;;;23.73;11.07;;;;;;;9.80;63.29;101286.06;6255939;22;20031;-75